Monday, October 15, 2018, 11:39 PM EDT
Back to Local

KPHL, Philadelphia International Airpt

Location: Philadelphia, PA, United States Lat: 39.867
Local Time: 11:39 PM EDT ( 3:39 GMT) Lon: -75.233
Time Zone: US/Eastern Elev: 19 ft

Show me the last for .
Show Decoded

2018-10-15 22:54 METAR KPHL 160254Z 25011KT 10SM SCT060 BKN075 OVC130 19/18 A2993 RMK AO2
                 RAB32E45 SLP134 P0000 60000 T01940183 53002 $ =
2018-10-15 21:54 METAR KPHL 160154Z 24011KT 10SM BKN070 OVC130 19/18 A2992 RMK AO2 RAE0057B34E54
                 SLP132 P0000 T01940178 $ =
2018-10-15 20:54 METAR KPHL 160054Z 24009KT 10SM -RA BKN060 OVC120 20/18 A2992 RMK AO2 RAB48
                 SLP132 P0000 T02000178 $ =
2018-10-15 19:54 METAR KPHL 152354Z 23009KT 10SM BKN065 BKN090 OVC120 20/17 A2992 RMK AO2 SLP133
                 60000 T02000172 10206 20183 56009 $ =
2018-10-15 18:54 METAR KPHL 152254Z 22009KT 10SM BKN080 BKN130 OVC260 20/17 A2993 RMK AO2
                 RAB03E28 SLP135 P0000 T02000172 $ =
2018-10-15 17:54 METAR KPHL 152154Z 22016G21KT 10SM FEW012 BKN085 BKN120 OVC260 20/17 A2994 RMK
                 AO2 SLP137 T02000172 =
2018-10-15 16:54 METAR KPHL 152054Z 22013G19KT 10SM FEW012 SCT080 BKN130 OVC260 20/17 A2995 RMK
                 AO2 RAE20 SLP141 P0000 60000 T02000172 58016 =
2018-10-15 15:54 METAR KPHL 151954Z 22008KT 10SM -RA FEW012 OVC110 19/17 A2997 RMK AO2 RAB40
                 SLP149 P0000 T01940172 =
2018-10-15 15:38 METAR KPHL 151938Z 23011KT 10SM SCT012 BKN100 OVC160 19/17 A2999 RMK AO2
                 T01940172 =
2018-10-15 14:54 METAR KPHL 151854Z 24010KT 10SM OVC012 19/17 A3000 RMK AO2 SLP159 T01890167 =
2018-10-15 14:13 METAR KPHL 151813Z 21015KT 10SM OVC012 18/17 A3000 RMK AO2 T01830167 $ =
2018-10-15 13:54 METAR KPHL 151754Z 21014KT 10SM OVC009 18/17 A3000 RMK AO2 SLP158 60009
                 T01830167 10183 20150 58030 $ =
2018-10-15 12:54 METAR KPHL 151654Z 21011KT 10SM OVC007 17/16 A3003 RMK AO2 SLP169 T01720161 $ =
2018-10-15 11:54 METAR KPHL 151554Z 21011KT 10SM OVC009 17/16 A3006 RMK AO2 SLP180 T01670156 $ =
2018-10-15 10:54 METAR KPHL 151454Z 20011KT 10SM BKN009 OVC014 16/15 A3009 RMK AO2 RAE52 SLP188
                 VCSH P0005 60009 T01610150 58010 $ =
2018-10-15 10:33 METAR KPHL 151433Z 20009KT 7SM -RA OVC007 16/15 A3010 RMK AO2 P0004 T01560150 $
                 =
2018-10-15 10:22 METAR KPHL 151422Z 20010KT 4SM RA BR BKN009 OVC019 16/14 A3010 RMK AO2 P0003
                 T01560144 $ =
2018-10-15 10:02 METAR KPHL 151402Z 19008KT 5SM RA BR BKN012 OVC019 15/14 A3011 RMK AO2 P0002
                 T01500144 $ =
2018-10-15 09:54 METAR KPHL 151354Z 19010KT 4SM RA BR OVC012 15/14 A3011 RMK AO2 SLP194 P0004
                 T01500144 $ =
2018-10-15 09:23 METAR KPHL 151323Z 20010KT 4SM -RA BR OVC012 16/14 A3012 RMK AO2 P0001 T01560139
                 $ =
2018-10-15 09:17 METAR KPHL 151317Z 20008KT 7SM -RA OVC014 16/14 A3013 RMK AO2 P0001 T01560139 $
                 =
2018-10-15 08:54 METAR KPHL 151254Z 19009KT 7SM -RA BKN019 OVC025 16/13 A3012 RMK AO2 RAE26B50
                 SLP199 P0000 T01560133 $ =
2018-10-15 08:42 METAR KPHL 151242Z 18008KT 10SM BKN019 OVC025 16/13 A3012 RMK AO2 RAE26 P0000
                 T01560133 $ =
2018-10-15 08:26 METAR KPHL 151226Z 19007KT 10SM BKN021 OVC027 15/13 A3012 RMK AO2 RAE26 P0000
                 T01500133 $ =
2018-10-15 08:19 METAR KPHL 151219Z 19009KT 6SM -RA BR BKN023 OVC029 15/13 A3012 RMK AO2 P0000
                 T01500133 $ =
2018-10-15 07:54 METAR KPHL 151154Z 19009KT 10SM -RA BKN028 OVC032 16/13 A3012 RMK AO2
                 RAB1059E10B54 SLP198 P0000 60001 70001 T01560128 10156 20122 56014 $ =
2018-10-15 07:48 METAR KPHL 151148Z 19009KT 10SM OVC028 16/13 A3012 RMK AO2 RAB1059E10 P0000 $ =
2018-10-15 06:54 METAR KPHL 151054Z 17005KT 10SM SCT030 OVC039 14/12 A3013 RMK AO2 SLP202
                 T01440122 $ =
2018-10-15 06:05 METAR KPHL 151005Z 13004KT 10SM BKN030 OVC037 14/12 A3014 RMK AO2 T01390122 $ =
2018-10-15 05:54 METAR KPHL 150954Z 13004KT 10SM OVC028 14/12 A3014 RMK AO2 SLP205 T01390122 $ =
2018-10-15 04:54 METAR KPHL 150854Z 17006KT 10SM OVC027 14/12 A3016 RMK AO2 RAB00E09 SLP212 P0000
                 60001 T01390117 58015 $ =
2018-10-15 03:54 METAR KPHL 150754Z 19004KT 10SM BKN027 OVC037 14/11 A3017 RMK AO2 RAE0657B17E26
                 SLP216 P0001 T01390111 $ =
2018-10-15 02:54 METAR KPHL 150654Z 10003KT 10SM -RA BKN028 OVC037 12/11 A3019 RMK AO2 RAE16B49
                 SLP223 P0000 T01220106 $ =
2018-10-15 02:16 METAR KPHL 150616Z 10004KT 10SM BKN028 OVC036 12/10 A3020 RMK AO2 RAE16 P0000
                 T01220100 $ =
2018-10-15 02:04 METAR KPHL 150604Z 11004KT 8SM -RA OVC034 13/09 A3020 RMK AO2 P0000 T01280094 $
                 =
2018-10-15 01:54 METAR KPHL 150554Z 10004KT 10SM -RA BKN030 OVC038 13/09 A3020 RMK AO2 RAB32
                 SLP227 P0000 60000 T01280094 10133 20122 58010 $ =
2018-10-15 00:54 METAR KPHL 150454Z 00000KT 10SM OVC034 13/09 A3021 RMK AO2 SLP230 T01280094
                 401390072 $ =
2018-10-14 23:54 METAR KPHL 150354Z 10003KT 10SM OVC035 12/09 A3022 RMK AO2 SLP233 T01220094 $ =

Support USWX by starting your Amazon purchase here.